createdAt,value
2023-01-12T00:02:13.292Z,3.10
2023-01-12T00:04:44.579Z,3.25
2023-01-12T00:07:24.944Z,3.05
2023-01-12T00:09:54.128Z,2.50
2023-01-12T00:12:23.377Z,4.85
2023-01-12T00:14:52.803Z,3.75
2023-01-12T00:17:22.252Z,3.58
2023-01-12T00:19:53.978Z,4.88
2023-01-12T00:24:52.228Z,3.25
2023-01-12T00:27:31.813Z,4.07
2023-01-12T00:30:01.002Z,6.35
2023-01-12T00:32:30.342Z,7.00
2023-01-12T00:35:01.449Z,4.78
2023-01-12T00:37:32.613Z,3.92
2023-01-12T00:40:03.099Z,3.47
2023-01-12T00:42:46.676Z,3.70
2023-01-12T00:45:24.429Z,2.88
2023-01-12T00:47:54.175Z,3.35
2023-01-12T00:50:25.685Z,4.13
2023-01-12T00:52:55.028Z,3.97
2023-01-12T00:55:24.217Z,4.00
2023-01-12T00:57:53.544Z,5.00
2023-01-12T01:00:23.373Z,2.63
2023-01-12T01:02:52.633Z,3.53
2023-01-12T01:05:28.730Z,4.90
2023-01-12T01:07:57.966Z,4.00
2023-01-12T01:10:27.055Z,3.92
2023-01-12T01:12:56.323Z,5.30
2023-01-12T01:15:25.385Z,3.35
2023-01-12T01:17:54.617Z,2.40
2023-01-12T01:20:23.720Z,3.97
2023-01-12T01:22:55.220Z,3.85
2023-01-12T01:25:24.510Z,3.05
2023-01-12T01:27:53.614Z,3.90
2023-01-12T01:30:23.008Z,2.60
2023-01-12T01:32:52.518Z,3.75
2023-01-12T01:35:21.710Z,4.43
2023-01-12T01:37:50.854Z,5.25
2023-01-12T01:40:22.286Z,4.13
2023-01-12T01:42:51.468Z,3.65
2023-01-12T01:45:20.862Z,2.65
2023-01-12T01:47:53.318Z,3.03
2023-01-12T01:50:28.324Z,3.53
2023-01-12T01:53:02.176Z,6.22
2023-01-12T01:55:39.263Z,3.63
2023-01-12T01:58:12.004Z,4.47
2023-01-12T02:00:43.174Z,3.88
2023-01-12T02:03:15.218Z,2.90
2023-01-12T02:05:48.378Z,3.42
2023-01-12T02:08:28.435Z,3.03
2023-01-12T02:11:00.683Z,4.28
2023-01-12T02:16:32.234Z,6.22
2023-01-12T02:19:23.296Z,5.20
2023-01-12T02:22:27.811Z,2.97
2023-01-12T02:25:19.400Z,2.78
2023-01-12T02:28:21.633Z,3.33
2023-01-12T02:33:44.734Z,3.33
2023-01-12T02:36:21.325Z,4.72
2023-01-12T02:38:58.011Z,3.63
2023-01-12T02:41:47.423Z,5.78
2023-01-12T02:44:25.330Z,2.80
2023-01-12T02:46:55.777Z,4.22
2023-01-12T02:49:32.239Z,4.53
2023-01-12T02:52:15.997Z,5.80
2023-01-12T02:54:49.905Z,3.70
2023-01-12T02:57:21.857Z,3.67
2023-01-12T02:59:52.363Z,4.25
2023-01-12T03:05:08.083Z,4.15
2023-01-12T03:07:46.590Z,3.20
2023-01-12T03:10:33.204Z,4.28
2023-01-12T03:13:12.240Z,3.05
2023-01-12T03:15:46.393Z,6.22
2023-01-12T03:18:18.473Z,3.70
2023-01-12T03:20:54.917Z,4.63
2023-01-12T03:23:36.099Z,3.75
2023-01-12T03:26:07.543Z,3.25
2023-01-12T03:28:40.061Z,2.97
2023-01-12T03:31:11.701Z,5.28
2023-01-12T03:33:42.507Z,4.57
2023-01-12T03:36:21.607Z,2.17
2023-01-12T03:41:52.534Z,3.58
2023-01-12T03:44:28.386Z,4.05
2023-01-12T03:47:08.221Z,3.83
2023-01-12T03:49:43.129Z,5.80
2023-01-12T03:52:14.926Z,5.43
2023-01-12T03:54:48.271Z,5.70
2023-01-12T03:57:19.586Z,5.20
2023-01-12T03:59:49.227Z,4.10
2023-01-12T04:02:18.348Z,5.03
2023-01-12T04:04:47.616Z,4.10
2023-01-12T04:07:18.817Z,4.47
2023-01-12T04:09:48.002Z,3.78
2023-01-12T04:12:18.398Z,3.75
2023-01-12T04:14:48.309Z,3.78
2023-01-12T04:17:18.723Z,6.00
2023-01-12T04:19:48.401Z,3.22
2023-01-12T04:25:20.412Z,4.60
2023-01-12T04:27:53.835Z,4.38
2023-01-12T04:33:11.024Z,5.13
2023-01-12T04:35:40.231Z,3.95
2023-01-12T04:38:11.641Z,2.90
2023-01-12T04:40:40.907Z,4.75
2023-01-12T04:43:15.372Z,6.32
2023-01-12T04:45:47.374Z,3.67
2023-01-12T04:48:19.014Z,5.25
2023-01-12T04:50:50.136Z,4.47
2023-01-12T04:53:24.087Z,3.38
2023-01-12T04:55:53.342Z,4.07
2023-01-12T04:58:22.484Z,4.28
2023-01-12T05:00:56.724Z,5.00
2023-01-12T05:03:30.808Z,5.38
2023-01-12T05:06:00.109Z,2.53
2023-01-12T05:08:44.132Z,5.15
2023-01-12T05:11:13.375Z,4.93
2023-01-12T05:13:42.521Z,3.88
2023-01-12T05:16:18.383Z,5.18
2023-01-12T05:18:47.936Z,5.43
2023-01-12T05:24:01.078Z,6.45
2023-01-12T05:28:59.117Z,5.70
2023-01-12T05:31:28.362Z,5.93
2023-01-12T05:36:32.889Z,5.22
2023-01-12T05:39:03.821Z,7.15
2023-01-12T05:41:32.977Z,4.95
2023-01-12T05:44:00.101Z,4.55
2023-01-12T05:46:32.817Z,4.53
2023-01-12T05:49:02.130Z,4.35
2023-01-12T05:51:33.796Z,6.10
2023-01-12T05:54:05.331Z,6.88
2023-01-12T05:56:34.675Z,5.13
2023-01-12T05:59:05.134Z,6.07
2023-01-12T06:01:34.780Z,5.95
2023-01-12T06:04:09.105Z,5.85
2023-01-12T06:09:15.631Z,5.40
2023-01-12T06:11:57.877Z,5.68
2023-01-12T06:14:27.493Z,4.30
2023-01-12T06:16:56.844Z,4.88
2023-01-12T06:19:26.069Z,4.22
2023-01-12T06:21:58.958Z,5.43
2023-01-12T06:24:30.426Z,6.10
2023-01-12T06:26:59.777Z,4.90
2023-01-12T06:29:28.789Z,4.05
2023-01-12T06:32:03.064Z,6.32
2023-01-12T06:34:34.960Z,5.93
2023-01-12T06:37:04.803Z,3.40
2023-01-12T06:39:36.291Z,3.83
2023-01-12T06:42:25.665Z,4.80
2023-01-12T06:44:54.821Z,7.05
2023-01-12T06:47:23.985Z,5.57
2023-01-12T06:49:53.758Z,5.22
2023-01-12T06:52:24.844Z,5.60
2023-01-12T06:54:56.224Z,7.80
2023-01-12T06:57:25.637Z,8.27
2023-01-12T06:59:56.028Z,6.03
2023-01-12T07:02:25.632Z,9.10
2023-01-12T07:04:54.800Z,6.95
2023-01-12T07:07:25.254Z,7.18
2023-01-12T07:09:56.428Z,6.38
2023-01-12T07:12:25.726Z,3.92
2023-01-12T07:14:55.750Z,7.50
2023-01-12T07:17:24.891Z,7.68
2023-01-12T07:19:53.968Z,5.00
2023-01-12T07:22:23.370Z,5.93
2023-01-12T07:24:52.491Z,4.25
2023-01-12T07:27:23.975Z,6.80
2023-01-12T07:29:53.833Z,5.80
2023-01-12T07:32:31.701Z,8.05
2023-01-12T07:35:00.956Z,5.55
2023-01-12T07:37:30.145Z,6.82
2023-01-12T07:42:37.729Z,8.82
2023-01-12T07:45:08.359Z,7.47
2023-01-12T07:47:37.523Z,8.52
2023-01-12T07:50:07.681Z,9.55
2023-01-12T07:52:37.432Z,6.45
2023-01-12T07:55:07.348Z,6.43
2023-01-12T07:57:38.397Z,7.35
2023-01-12T08:00:14.717Z,8.00
2023-01-12T08:02:54.995Z,10.60
2023-01-12T08:05:25.047Z,5.70
2023-01-12T08:07:59.109Z,9.25
2023-01-12T08:10:28.368Z,8.75
2023-01-12T08:12:59.693Z,7.38
2023-01-12T08:15:33.550Z,10.43
2023-01-12T08:18:10.473Z,9.80
2023-01-12T08:23:19.788Z,9.88
2023-01-12T08:25:58.768Z,13.85
2023-01-12T08:28:35.734Z,11.38
2023-01-12T08:31:05.528Z,10.30
2023-01-12T08:33:37.198Z,4.90
2023-01-12T08:38:37.471Z,6.60
2023-01-12T08:41:19.991Z,9.77
2023-01-12T08:44:04.170Z,11.63
2023-01-12T08:46:34.909Z,8.90
2023-01-12T08:49:04.513Z,6.95
2023-01-12T08:51:33.543Z,9.05
2023-01-12T08:54:03.810Z,10.40
2023-01-12T08:56:32.995Z,7.07
2023-01-12T08:59:14.189Z,10.35
2023-01-12T09:01:44.379Z,10.05
2023-01-12T09:04:13.919Z,16.35
2023-01-12T09:06:50.129Z,8.85
2023-01-12T09:09:22.013Z,12.18
2023-01-12T09:14:22.404Z,15.60
2023-01-12T09:16:51.646Z,9.20
2023-01-12T09:19:20.823Z,7.03
2023-01-12T09:21:50.114Z,10.10
2023-01-12T09:24:19.361Z,13.52
2023-01-12T09:26:48.625Z,20.05
2023-01-12T09:29:17.927Z,9.95
2023-01-12T09:31:49.449Z,10.20
2023-01-12T09:34:18.641Z,10.00
2023-01-12T09:36:50.123Z,11.15
2023-01-12T09:39:27.401Z,10.63
2023-01-12T09:42:11.074Z,11.63
2023-01-12T09:45:00.128Z,9.40
2023-01-12T09:47:41.224Z,7.47
2023-01-12T09:50:13.909Z,8.13
2023-01-12T09:52:46.582Z,14.32
2023-01-12T09:55:23.680Z,10.13
2023-01-12T09:58:22.541Z,8.75
2023-01-12T10:00:53.411Z,10.13
2023-01-12T10:03:36.759Z,11.48
2023-01-12T10:06:13.516Z,9.88
2023-01-12T10:08:56.339Z,10.18
2023-01-12T10:11:31.132Z,13.88
2023-01-12T10:14:20.032Z,8.77
2023-01-12T10:17:09.530Z,7.32
2023-01-12T10:19:50.794Z,9.38
2023-01-12T10:22:38.384Z,9.30
2023-01-12T10:28:01.317Z,8.45
2023-01-12T10:30:33.299Z,13.40
2023-01-12T10:33:11.622Z,13.40
2023-01-12T10:36:02.379Z,7.72
2023-01-12T10:38:34.573Z,6.72
2023-01-12T10:41:19.150Z,7.53
2023-01-12T10:44:07.093Z,8.10
2023-01-12T10:46:41.720Z,8.10
2023-01-12T10:49:24.276Z,11.65
2023-01-12T10:51:59.670Z,7.60
2023-01-12T10:54:32.916Z,10.50
2023-01-12T10:57:07.346Z,8.70
2023-01-12T11:02:19.995Z,9.82
2023-01-12T11:04:55.008Z,8.45
2023-01-12T11:07:28.659Z,14.02
2023-01-12T11:10:21.175Z,8.40
2023-01-12T11:12:56.895Z,15.00
2023-01-12T11:15:26.788Z,12.25
2023-01-12T11:18:07.164Z,6.25
2023-01-12T11:20:39.632Z,9.10
2023-01-12T11:23:18.982Z,8.40
2023-01-12T11:25:51.588Z,8.95
2023-01-12T11:28:25.815Z,8.73
2023-01-12T11:30:59.258Z,7.75
2023-01-12T11:33:45.677Z,9.07
2023-01-12T11:36:20.023Z,15.73
2023-01-12T11:38:58.549Z,14.10
2023-01-12T11:41:35.411Z,10.43
2023-01-12T11:44:19.156Z,9.80
2023-01-12T11:46:53.828Z,9.68
2023-01-12T11:49:34.842Z,7.38
2023-01-12T11:52:12.909Z,11.20
2023-01-12T11:54:44.924Z,10.98
2023-01-12T11:57:37.735Z,9.63
2023-01-12T12:00:25.768Z,9.23
2023-01-12T12:03:08.347Z,10.32
2023-01-12T12:05:49.065Z,8.73
2023-01-12T12:08:33.817Z,9.95
2023-01-12T12:11:12.995Z,7.50
2023-01-12T12:13:47.318Z,8.30
2023-01-12T12:16:27.825Z,11.82
2023-01-12T12:19:19.416Z,6.93
2023-01-12T12:22:04.082Z,8.73
2023-01-12T12:24:56.325Z,7.43
2023-01-12T12:27:40.150Z,10.45
2023-01-12T12:30:43.671Z,10.18
2023-01-12T12:33:27.075Z,8.35
2023-01-12T12:36:16.668Z,10.02
2023-01-12T12:39:15.173Z,9.80
2023-01-12T12:42:07.756Z,7.78
2023-01-12T12:45:05.940Z,6.80
2023-01-12T12:54:19.554Z,10.25
2023-01-12T12:56:51.305Z,6.30
2023-01-12T12:59:59.218Z,8.63
2023-01-12T13:02:41.042Z,5.47
2023-01-12T13:05:45.323Z,10.40
2023-01-12T13:08:21.699Z,5.40
2023-01-12T13:10:58.346Z,8.20
2023-01-12T13:19:36.328Z,7.93
2023-01-12T13:22:30.415Z,6.63
2023-01-12T13:25:01.014Z,8.32
2023-01-12T13:27:52.062Z,9.32
2023-01-12T13:30:40.560Z,7.43
2023-01-12T13:33:28.878Z,9.63
2023-01-12T13:36:10.136Z,7.25
2023-01-12T13:39:00.634Z,8.43
2023-01-12T13:41:46.418Z,8.38
2023-01-12T13:44:29.370Z,8.45
2023-01-12T13:47:12.279Z,7.00
2023-01-12T13:49:47.956Z,5.53
2023-01-12T13:52:30.625Z,7.60
2023-01-12T13:55:27.621Z,6.72
2023-01-12T13:58:02.664Z,8.23
2023-01-12T14:00:34.646Z,9.50
2023-01-12T14:03:06.344Z,6.57
2023-01-12T14:05:48.556Z,5.45
2023-01-12T14:09:04.454Z,8.00
2023-01-12T14:12:05.986Z,6.40
2023-01-12T14:15:06.076Z,9.95
2023-01-12T14:17:58.132Z,6.95
2023-01-12T14:20:36.824Z,6.75
2023-01-12T14:23:16.736Z,6.65
2023-01-12T14:25:47.100Z,7.50
2023-01-12T14:28:25.395Z,8.20
2023-01-12T14:30:57.223Z,6.40
2023-01-12T14:36:18.543Z,5.97
2023-01-12T14:38:48.399Z,13.90
2023-01-12T14:41:35.183Z,9.52
2023-01-12T14:44:21.058Z,8.93
2023-01-12T14:47:01.315Z,8.32
2023-01-12T14:49:32.551Z,9.48
2023-01-12T14:52:03.468Z,6.85
2023-01-12T14:54:35.504Z,10.90
2023-01-12T14:57:21.028Z,11.35
2023-01-12T14:59:53.735Z,7.38
2023-01-12T15:02:42.270Z,8.02
2023-01-12T15:05:27.139Z,7.55
2023-01-12T15:07:59.756Z,8.80
2023-01-12T15:10:32.767Z,8.65
2023-01-12T15:13:27.434Z,6.10
2023-01-12T15:16:12.156Z,8.13
2023-01-12T15:18:54.362Z,9.00
2023-01-12T15:21:37.067Z,11.35
2023-01-12T15:24:32.133Z,11.57
2023-01-12T15:27:06.524Z,5.05
2023-01-12T15:29:36.349Z,9.02
2023-01-12T15:32:14.475Z,7.18
2023-01-12T15:34:49.154Z,5.72
2023-01-12T15:37:19.865Z,7.18
2023-01-12T15:39:54.698Z,7.90
2023-01-12T15:42:25.982Z,7.65
2023-01-12T15:44:55.838Z,4.82
2023-01-12T15:47:26.987Z,6.47
2023-01-12T15:49:56.448Z,5.03
2023-01-12T15:52:27.792Z,7.20
2023-01-12T15:54:57.740Z,5.03
2023-01-12T15:57:26.949Z,7.22
2023-01-12T15:59:56.138Z,7.85
2023-01-12T16:02:43.907Z,7.82
2023-01-12T16:05:23.598Z,6.13
2023-01-12T16:07:52.946Z,9.60
2023-01-12T16:10:23.243Z,10.52
2023-01-12T16:12:52.406Z,9.05
2023-01-12T16:15:22.902Z,8.10
2023-01-12T16:17:54.120Z,7.75
2023-01-12T16:20:28.378Z,7.45
2023-01-12T16:22:57.476Z,7.63
2023-01-12T16:25:26.901Z,6.47
2023-01-12T16:28:00.169Z,9.98
2023-01-12T16:30:29.465Z,8.48
2023-01-12T16:33:01.698Z,5.97
2023-01-12T16:35:30.936Z,9.55
2023-01-12T16:38:00.006Z,7.85
2023-01-12T16:40:29.686Z,8.90
2023-01-12T16:42:59.003Z,7.60
2023-01-12T16:45:28.569Z,8.63
2023-01-12T16:48:02.827Z,7.25
2023-01-12T16:50:31.998Z,8.55
2023-01-12T16:53:01.126Z,12.63
2023-01-12T16:55:30.682Z,4.80
2023-01-12T16:57:59.773Z,7.10
2023-01-12T17:00:32.607Z,9.13
2023-01-12T17:03:09.329Z,9.88
2023-01-12T17:05:41.350Z,6.90
2023-01-12T17:08:10.924Z,9.32
2023-01-12T17:10:40.098Z,6.90
2023-01-12T17:13:09.595Z,9.18
2023-01-12T17:15:38.850Z,6.43
2023-01-12T17:18:10.899Z,9.65
2023-01-12T17:20:40.382Z,4.38
2023-01-12T17:23:09.546Z,8.25
2023-01-12T17:25:39.057Z,9.40
2023-01-12T17:28:14.375Z,8.02
2023-01-12T17:30:44.101Z,6.03
2023-01-12T17:33:21.748Z,6.93
2023-01-12T17:35:52.414Z,8.05
2023-01-12T17:38:22.447Z,12.52
2023-01-12T17:40:51.503Z,9.88
2023-01-12T17:43:18.936Z,8.13
2023-01-12T17:45:53.164Z,9.30
2023-01-12T17:48:24.925Z,7.68
2023-01-12T17:50:54.258Z,7.75
2023-01-12T17:53:24.081Z,11.30
2023-01-12T17:55:53.597Z,9.77
2023-01-12T17:58:22.763Z,8.02
2023-01-12T18:00:58.732Z,8.93
2023-01-12T18:03:31.651Z,8.75
2023-01-12T18:06:09.052Z,8.70
2023-01-12T18:08:41.526Z,8.50
2023-01-12T18:11:10.951Z,10.10
2023-01-12T18:13:41.490Z,8.40
2023-01-12T18:16:12.173Z,7.45
2023-01-12T18:18:44.460Z,9.32
2023-01-12T18:21:21.763Z,9.98
2023-01-12T18:23:51.969Z,7.88
2023-01-12T18:26:24.791Z,10.15
2023-01-12T18:28:54.318Z,8.98
2023-01-12T18:31:24.937Z,11.40
2023-01-12T18:33:58.993Z,10.27
2023-01-12T18:36:28.306Z,10.38
2023-01-12T18:38:57.435Z,8.40
2023-01-12T18:44:14.552Z,8.10
2023-01-12T18:46:58.107Z,7.38
2023-01-12T18:49:30.499Z,7.53
2023-01-12T18:52:13.763Z,7.78
2023-01-12T18:54:46.924Z,8.80
2023-01-12T18:57:18.679Z,10.68
2023-01-12T18:59:56.678Z,8.55
2023-01-12T19:02:26.749Z,9.85
2023-01-12T19:05:12.447Z,12.05
2023-01-12T19:07:51.590Z,8.02
2023-01-12T19:10:21.087Z,11.30
2023-01-12T19:12:50.153Z,9.07
2023-01-12T19:15:37.669Z,10.80
2023-01-12T19:18:06.931Z,9.93
2023-01-12T19:20:39.820Z,9.10
2023-01-12T19:23:37.792Z,9.07
2023-01-12T19:26:25.113Z,9.52
2023-01-12T19:28:54.249Z,9.70
2023-01-12T19:31:23.328Z,9.07
2023-01-12T19:33:52.614Z,8.05
2023-01-12T19:36:23.723Z,10.70
2023-01-12T19:38:53.589Z,12.68
2023-01-12T19:41:35.558Z,8.45
2023-01-12T19:44:05.370Z,9.88
2023-01-12T19:46:34.961Z,10.13
2023-01-12T19:49:04.193Z,6.90
2023-01-12T19:51:35.297Z,11.63
2023-01-12T19:54:04.529Z,9.13
2023-01-12T19:56:33.561Z,11.38
2023-01-12T19:59:03.064Z,11.18
2023-01-12T20:01:32.770Z,10.43
2023-01-12T20:04:02.092Z,14.23
2023-01-12T20:06:39.417Z,10.20
2023-01-12T20:09:18.538Z,11.88
2023-01-12T20:14:27.442Z,14.43
2023-01-12T20:16:56.696Z,12.57
2023-01-12T20:19:26.059Z,10.48
2023-01-12T20:22:00.993Z,12.48
2023-01-12T20:24:30.818Z,12.10
2023-01-12T20:27:00.162Z,10.40
2023-01-12T20:29:34.643Z,15.57
2023-01-12T20:32:05.613Z,13.48
2023-01-12T20:34:36.425Z,13.50
2023-01-12T20:37:07.526Z,12.17
2023-01-12T20:39:36.623Z,10.02
2023-01-12T20:42:05.891Z,12.27
2023-01-12T20:44:35.160Z,12.43
2023-01-12T20:47:10.602Z,14.40
2023-01-12T20:49:39.880Z,11.75
2023-01-12T20:52:11.026Z,12.25
2023-01-12T20:54:45.341Z,11.60
2023-01-12T20:57:14.444Z,12.43
2023-01-12T20:59:50.338Z,14.23
2023-01-12T21:02:27.103Z,11.93
2023-01-12T21:04:56.289Z,11.18
2023-01-12T21:07:27.398Z,11.05
2023-01-12T21:09:56.649Z,12.82
2023-01-12T21:12:27.515Z,9.73
2023-01-12T21:15:02.286Z,13.50
2023-01-12T21:17:35.500Z,12.70
2023-01-12T21:22:42.754Z,13.40
2023-01-12T21:25:12.435Z,13.85
2023-01-12T21:27:42.227Z,13.50
2023-01-12T21:30:12.897Z,14.25
2023-01-12T21:32:43.133Z,12.95
2023-01-12T21:35:14.343Z,17.02
2023-01-12T21:37:50.951Z,16.17
2023-01-12T21:40:20.428Z,13.93
2023-01-12T21:43:02.466Z,13.20
2023-01-12T21:45:31.743Z,17.13
2023-01-12T21:48:00.831Z,17.88
2023-01-12T21:50:42.791Z,15.30
2023-01-12T21:53:22.330Z,15.65
2023-01-12T21:58:38.026Z,14.25
2023-01-12T22:01:12.042Z,14.32
2023-01-12T22:03:42.097Z,16.98
2023-01-12T22:06:16.725Z,11.88
2023-01-12T22:08:47.826Z,14.25
2023-01-12T22:11:18.037Z,12.05
2023-01-12T22:13:48.151Z,13.05
2023-01-12T22:16:18.084Z,14.32
2023-01-12T22:18:49.150Z,15.10
2023-01-12T22:21:19.925Z,14.48
2023-01-12T22:23:51.367Z,13.82
2023-01-12T22:26:21.129Z,13.20
2023-01-12T22:28:50.679Z,12.40
2023-01-12T22:31:21.712Z,14.70
2023-01-12T22:33:53.646Z,13.90
2023-01-12T22:38:53.665Z,10.88
2023-01-12T22:41:24.507Z,11.55
2023-01-12T22:43:53.849Z,14.32
2023-01-12T22:46:25.165Z,12.57
2023-01-12T22:48:55.663Z,13.77
2023-01-12T22:51:26.883Z,13.18
2023-01-12T22:53:58.897Z,8.07
2023-01-12T22:56:28.237Z,13.13
2023-01-12T22:58:58.136Z,10.98
2023-01-12T23:01:28.149Z,12.95
2023-01-12T23:03:58.744Z,17.05
2023-01-12T23:06:33.910Z,14.52
2023-01-12T23:09:05.500Z,16.35
2023-01-12T23:11:41.427Z,15.95
2023-01-12T23:14:10.546Z,14.02
2023-01-12T23:16:44.727Z,11.82
2023-01-12T23:19:19.815Z,13.35
2023-01-12T23:21:48.925Z,10.13
2023-01-12T23:24:25.287Z,16.17
2023-01-12T23:26:59.487Z,12.93
2023-01-12T23:29:29.903Z,12.20
2023-01-12T23:32:04.214Z,13.65
2023-01-12T23:34:33.621Z,13.88
2023-01-12T23:37:02.926Z,13.38
2023-01-12T23:39:34.215Z,13.00
2023-01-12T23:42:03.538Z,14.00
2023-01-12T23:44:37.982Z,14.25
2023-01-12T23:47:07.365Z,11.48
2023-01-12T23:49:36.549Z,13.07
2023-01-12T23:52:06.085Z,12.85
2023-01-12T23:54:38.031Z,14.35
2023-01-12T23:57:07.407Z,15.27
2023-01-12T23:59:36.632Z,11.02
